sensor_id;sensor_type;location;lat;lon;timestamp;pressure;altitude;pressure_sealevel;temperature;humidity
65329;BME280;51941;52.210;5.158;2022-09-01T00:02:15;102147.69;;;15.50;70.07
65329;BME280;51941;52.210;5.158;2022-09-01T00:04:44;101996.94;;;14.48;70.03
65329;BME280;51941;52.210;5.158;2022-09-01T00:07:13;102011.19;;;14.53;70.44
65329;BME280;51941;52.210;5.158;2022-09-01T00:09:40;102152.56;;;15.41;70.51
65329;BME280;51941;52.210;5.158;2022-09-01T00:12:08;102159.28;;;15.32;70.92
65329;BME280;51941;52.210;5.158;2022-09-01T00:14:37;102086.72;;;14.89;71.29
65329;BME280;51941;52.210;5.158;2022-09-01T00:17:07;102142.91;;;15.29;71.40
65329;BME280;51941;52.210;5.158;2022-09-01T00:19:34;101940.03;;;14.00;71.29
65329;BME280;51941;52.210;5.158;2022-09-01T00:22:03;102002.34;;;14.41;71.26
65329;BME280;51941;52.210;5.158;2022-09-01T00:24:30;102123.97;;;15.07;71.93
65329;BME280;51941;52.210;5.158;2022-09-01T00:26:57;101942.66;;;13.89;72.24
65329;BME280;51941;52.210;5.158;2022-09-01T00:29:24;102051.06;;;14.60;71.98
65329;BME280;51941;52.210;5.158;2022-09-01T00:31:52;101884.66;;;13.49;72.37
65329;BME280;51941;52.210;5.158;2022-09-01T00:34:20;101991.72;;;14.11;72.28
65329;BME280;51941;52.210;5.158;2022-09-01T00:36:47;102144.50;;;15.06;72.12
65329;BME280;51941;52.210;5.158;2022-09-01T00:39:16;101945.03;;;13.79;72.49
65329;BME280;51941;52.210;5.158;2022-09-01T00:41:43;102053.44;;;14.50;71.82
65329;BME280;51941;52.210;5.158;2022-09-01T00:44:15;102121.16;;;14.90;72.17
65329;BME280;51941;52.210;5.158;2022-09-01T00:46:45;102123.47;;;14.87;72.20
65329;BME280;51941;52.210;5.158;2022-09-01T00:49:16;101995.84;;;14.07;72.80
65329;BME280;51941;52.210;5.158;2022-09-01T00:52:00;101937.44;;;13.64;72.80
65329;BME280;51941;52.210;5.158;2022-09-01T00:54:32;102099.63;;;14.62;72.81
65329;BME280;51941;52.210;5.158;2022-09-01T00:57:02;102041.53;;;14.22;73.00
65329;BME280;51941;52.210;5.158;2022-09-01T00:59:30;101736.13;;;12.32;72.92
65329;BME280;51941;52.210;5.158;2022-09-01T01:01:58;101979.56;;;13.85;72.87
65329;BME280;51941;52.210;5.158;2022-09-01T01:04:25;101980.75;;;13.71;72.81
65329;BME280;51941;52.210;5.158;2022-09-01T01:06:55;102119.81;;;14.69;72.93
65329;BME280;51941;52.210;5.158;2022-09-01T01:09:29;101990.66;;;13.82;73.43
65329;BME280;51941;52.210;5.158;2022-09-01T01:11:59;101731.66;;;12.07;73.67
65329;BME280;51941;52.210;5.158;2022-09-01T01:14:28;102114.00;;;14.61;73.80
65329;BME280;51941;52.210;5.158;2022-09-01T01:16:56;101716.63;;;11.95;73.84
65329;BME280;51941;52.210;5.158;2022-09-01T01:19:34;101728.75;;;12.15;73.97
65329;BME280;51941;52.210;5.158;2022-09-01T01:22:30;101740.41;;;12.08;73.82
65329;BME280;51941;52.210;5.158;2022-09-01T01:25:37;102111.25;;;14.49;74.80
65329;BME280;51941;52.210;5.158;2022-09-01T01:28:13;101702.19;;;11.91;74.62
65329;BME280;51941;52.210;5.158;2022-09-01T01:30:42;101729.47;;;11.98;74.50
65329;BME280;51941;52.210;5.158;2022-09-01T01:33:10;101730.28;;;11.98;74.49
65329;BME280;51941;52.210;5.158;2022-09-01T01:35:38;101856.59;;;12.80;74.64
65329;BME280;51941;52.210;5.158;2022-09-01T01:38:06;101922.81;;;13.18;74.57
65329;BME280;51941;52.210;5.158;2022-09-01T01:40:36;102034.94;;;13.77;75.14
65329;BME280;51941;52.210;5.158;2022-09-01T01:43:04;102116.38;;;14.32;75.19
65329;BME280;51941;52.210;5.158;2022-09-01T01:45:31;102115.78;;;14.30;75.21
65329;BME280;51941;52.210;5.158;2022-09-01T01:47:59;101863.94;;;12.78;75.18
65329;BME280;51941;52.210;5.158;2022-09-01T01:50:38;102080.22;;;14.06;75.19
65329;BME280;51941;52.210;5.158;2022-09-01T01:53:06;102111.97;;;14.26;75.12
65329;BME280;51941;52.210;5.158;2022-09-01T01:55:36;102113.00;;;14.25;75.19
65329;BME280;51941;52.210;5.158;2022-09-01T01:58:03;102113.41;;;14.22;75.23
65329;BME280;51941;52.210;5.158;2022-09-01T02:00:31;101976.88;;;13.30;75.16
65329;BME280;51941;52.210;5.158;2022-09-01T02:03:00;102113.06;;;14.19;74.99
65329;BME280;51941;52.210;5.158;2022-09-01T02:05:28;102033.91;;;13.59;74.88
65329;BME280;51941;52.210;5.158;2022-09-01T02:07:57;102117.41;;;14.13;75.14
65329;BME280;51941;52.210;5.158;2022-09-01T02:10:29;102129.34;;;14.11;75.12
65329;BME280;51941;52.210;5.158;2022-09-01T02:13:00;102108.28;;;14.09;75.51
65329;BME280;51941;52.210;5.158;2022-09-01T02:15:29;102118.09;;;14.09;75.39
65329;BME280;51941;52.210;5.158;2022-09-01T02:17:57;102120.78;;;14.09;75.36
65329;BME280;51941;52.210;5.158;2022-09-01T02:20:25;102118.31;;;14.07;75.48
65329;BME280;51941;52.210;5.158;2022-09-01T02:22:53;101782.13;;;12.01;75.13
65329;BME280;51941;52.210;5.158;2022-09-01T02:25:20;102003.09;;;13.27;75.70
65329;BME280;51941;52.210;5.158;2022-09-01T02:27:49;102121.06;;;14.00;75.65
65329;BME280;51941;52.210;5.158;2022-09-01T02:30:19;102120.25;;;14.00;75.77
65329;BME280;51941;52.210;5.158;2022-09-01T02:32:49;101927.31;;;12.75;75.35
65329;BME280;51941;52.210;5.158;2022-09-01T02:35:16;101819.00;;;12.09;75.43
65329;BME280;51941;52.210;5.158;2022-09-01T02:37:43;102120.69;;;13.97;75.75
65329;BME280;51941;52.210;5.158;2022-09-01T02:40:13;102111.06;;;13.96;76.09
65329;BME280;51941;52.210;5.158;2022-09-01T02:42:40;102109.69;;;13.93;75.93
65329;BME280;51941;52.210;5.158;2022-09-01T02:45:08;101916.97;;;12.67;75.59
65329;BME280;51941;52.210;5.158;2022-09-01T02:47:44;102104.88;;;13.84;76.13
65329;BME280;51941;52.210;5.158;2022-09-01T02:50:14;101963.13;;;12.97;75.87
65329;BME280;51941;52.210;5.158;2022-09-01T02:52:44;101951.13;;;12.88;75.82
65329;BME280;51941;52.210;5.158;2022-09-01T02:55:14;101847.47;;;12.27;75.60
65329;BME280;51941;52.210;5.158;2022-09-01T02:57:45;101930.44;;;12.72;75.86
65329;BME280;51941;52.210;5.158;2022-09-01T03:00:14;101980.25;;;13.01;75.99
65329;BME280;51941;52.210;5.158;2022-09-01T03:02:50;102090.06;;;13.69;76.49
65329;BME280;51941;52.210;5.158;2022-09-01T03:05:18;102104.28;;;13.82;76.46
65329;BME280;51941;52.210;5.158;2022-09-01T03:07:53;101842.25;;;12.13;76.30
65329;BME280;51941;52.210;5.158;2022-09-01T03:10:26;101820.66;;;12.03;76.51
65329;BME280;51941;52.210;5.158;2022-09-01T03:13:00;102023.19;;;13.23;76.41
65329;BME280;51941;52.210;5.158;2022-09-01T03:15:28;101726.69;;;11.36;76.53
65329;BME280;51941;52.210;5.158;2022-09-01T03:17:56;101847.38;;;12.08;76.37
65329;BME280;51941;52.210;5.158;2022-09-01T03:20:26;102085.63;;;13.63;76.71
65329;BME280;51941;52.210;5.158;2022-09-01T03:22:53;102103.97;;;13.72;76.23
65329;BME280;51941;52.210;5.158;2022-09-01T03:25:23;101830.84;;;12.06;76.43
65329;BME280;51941;52.210;5.158;2022-09-01T03:27:51;102037.22;;;13.30;76.75
65329;BME280;51941;52.210;5.158;2022-09-01T03:30:19;101737.09;;;11.38;76.33
65329;BME280;51941;52.210;5.158;2022-09-01T03:32:46;101950.44;;;12.74;76.73
65329;BME280;51941;52.210;5.158;2022-09-01T03:35:15;102002.91;;;13.04;76.76
65329;BME280;51941;52.210;5.158;2022-09-01T03:37:42;101618.28;;;10.59;76.33
65329;BME280;51941;52.210;5.158;2022-09-01T03:40:11;101666.78;;;10.97;76.51
65329;BME280;51941;52.210;5.158;2022-09-01T03:42:39;102098.13;;;13.63;76.20
65329;BME280;51941;52.210;5.158;2022-09-01T03:45:08;102039.28;;;13.28;76.50
65329;BME280;51941;52.210;5.158;2022-09-01T03:47:39;102078.31;;;13.59;76.14
65329;BME280;51941;52.210;5.158;2022-09-01T03:50:13;101778.31;;;11.65;76.19
65329;BME280;51941;52.210;5.158;2022-09-01T03:52:46;102060.50;;;13.41;76.46
65329;BME280;51941;52.210;5.158;2022-09-01T03:55:16;102051.69;;;13.34;76.19
65329;BME280;51941;52.210;5.158;2022-09-01T03:57:49;102022.88;;;13.13;76.02
65329;BME280;51941;52.210;5.158;2022-09-01T04:00:16;101819.00;;;11.77;75.97
65329;BME280;51941;52.210;5.158;2022-09-01T04:02:48;102053.34;;;13.35;76.01
65329;BME280;51941;52.210;5.158;2022-09-01T04:05:17;102033.50;;;13.13;75.63
65329;BME280;51941;52.210;5.158;2022-09-01T04:07:51;101791.94;;;11.69;75.52
65329;BME280;51941;52.210;5.158;2022-09-01T04:10:20;101928.00;;;12.45;75.79
65329;BME280;51941;52.210;5.158;2022-09-01T04:12:48;101823.50;;;11.77;75.37
65329;BME280;51941;52.210;5.158;2022-09-01T04:15:17;102066.84;;;13.40;75.68
65329;BME280;51941;52.210;5.158;2022-09-01T04:17:45;102075.16;;;13.44;75.63
65329;BME280;51941;52.210;5.158;2022-09-01T04:20:35;101761.50;;;11.47;75.81
65329;BME280;51941;52.210;5.158;2022-09-01T04:23:18;101683.13;;;10.94;75.39
65329;BME280;51941;52.210;5.158;2022-09-01T04:25:55;101627.25;;;10.58;75.06
65329;BME280;51941;52.210;5.158;2022-09-01T04:28:30;101970.38;;;12.59;75.45
65329;BME280;51941;52.210;5.158;2022-09-01T04:31:00;102079.91;;;13.42;75.32
65329;BME280;51941;52.210;5.158;2022-09-01T04:33:32;101892.00;;;12.25;75.13
65329;BME280;51941;52.210;5.158;2022-09-01T04:36:02;101666.25;;;10.82;74.66
65329;BME280;51941;52.210;5.158;2022-09-01T04:38:32;101824.94;;;11.79;74.44
65329;BME280;51941;52.210;5.158;2022-09-01T04:41:03;102085.25;;;13.42;74.47
65329;BME280;51941;52.210;5.158;2022-09-01T04:43:33;101665.28;;;10.77;74.22
65329;BME280;51941;52.210;5.158;2022-09-01T04:46:02;101998.47;;;12.98;74.36
65329;BME280;51941;52.210;5.158;2022-09-01T04:48:37;101662.25;;;10.66;74.28
65329;BME280;51941;52.210;5.158;2022-09-01T04:59:55;101644.56;;;10.54;73.74
65329;BME280;51941;52.210;5.158;2022-09-01T05:02:25;101872.09;;;12.09;73.63
65329;BME280;51941;52.210;5.158;2022-09-01T05:04:53;101926.03;;;12.34;73.48
65329;BME280;51941;52.210;5.158;2022-09-01T05:07:21;102089.75;;;13.41;73.36
65329;BME280;51941;52.210;5.158;2022-09-01T05:09:48;102055.03;;;13.29;73.39
65329;BME280;51941;52.210;5.158;2022-09-01T05:12:38;102009.03;;;13.04;73.16
65329;BME280;51941;52.210;5.158;2022-09-01T05:15:08;101908.81;;;12.43;72.86
65329;BME280;51941;52.210;5.158;2022-09-01T05:17:44;101643.28;;;10.69;72.84
65329;BME280;51941;52.210;5.158;2022-09-01T05:20:17;102023.38;;;13.03;72.89
65329;BME280;51941;52.210;5.158;2022-09-01T05:22:46;102011.81;;;12.91;72.74
65329;BME280;51941;52.210;5.158;2022-09-01T05:25:13;101914.34;;;12.42;72.34
65329;BME280;51941;52.210;5.158;2022-09-01T05:27:43;102082.66;;;13.53;72.55
65329;BME280;51941;52.210;5.158;2022-09-01T05:30:16;102079.19;;;13.53;72.46
65329;BME280;51941;52.210;5.158;2022-09-01T05:32:44;102087.13;;;13.59;72.19
65329;BME280;51941;52.210;5.158;2022-09-01T05:35:12;102100.41;;;13.59;71.71
65329;BME280;51941;52.210;5.158;2022-09-01T05:37:39;102082.16;;;13.63;71.73
65329;BME280;51941;52.210;5.158;2022-09-01T05:40:09;102007.28;;;13.16;71.62
65329;BME280;51941;52.210;5.158;2022-09-01T05:42:41;101952.38;;;12.85;71.44
65329;BME280;51941;52.210;5.158;2022-09-01T05:45:09;101940.94;;;12.85;71.02
65329;BME280;51941;52.210;5.158;2022-09-01T05:47:39;102081.00;;;13.77;71.07
65329;BME280;51941;52.210;5.158;2022-09-01T05:50:09;101779.84;;;11.79;70.84
65329;BME280;51941;52.210;5.158;2022-09-01T05:52:38;102015.69;;;13.38;70.71
65329;BME280;51941;52.210;5.158;2022-09-01T05:55:06;102085.78;;;13.87;70.77
65329;BME280;51941;52.210;5.158;2022-09-01T05:57:38;102093.13;;;13.91;70.65
65329;BME280;51941;52.210;5.158;2022-09-01T06:00:07;102092.91;;;13.93;70.42
65329;BME280;51941;52.210;5.158;2022-09-01T06:02:40;102094.28;;;13.95;70.23
65329;BME280;51941;52.210;5.158;2022-09-01T06:05:12;102039.44;;;13.58;69.96
65329;BME280;51941;52.210;5.158;2022-09-01T06:07:40;101843.25;;;12.44;69.88
65329;BME280;51941;52.210;5.158;2022-09-01T06:10:08;101860.00;;;12.44;69.63
65329;BME280;51941;52.210;5.158;2022-09-01T06:12:36;101822.16;;;12.24;69.80
65329;BME280;51941;52.210;5.158;2022-09-01T06:15:04;102018.47;;;13.50;69.62
65329;BME280;51941;52.210;5.158;2022-09-01T06:17:43;101991.47;;;13.46;69.45
65329;BME280;51941;52.210;5.158;2022-09-01T06:20:16;101916.38;;;13.08;69.41
65329;BME280;51941;52.210;5.158;2022-09-01T06:22:55;101658.03;;;11.78;69.16
65329;BME280;51941;52.210;5.158;2022-09-01T06:36:35;102075.16;;;18.44;59.06
65329;BME280;51941;52.210;5.158;2022-09-01T07:08:27;102066.03;;;21.16;48.41
65329;BME280;51941;52.210;5.158;2022-09-01T07:11:07;102084.81;;;21.36;48.10
65329;BME280;51941;52.210;5.158;2022-09-01T07:13:35;102017.81;;;21.20;47.82
65329;BME280;51941;52.210;5.158;2022-09-01T07:16:04;102047.31;;;21.55;47.04
65329;BME280;51941;52.210;5.158;2022-09-01T07:18:37;101962.38;;;21.03;46.87
65329;BME280;51941;52.210;5.158;2022-09-01T07:21:05;102125.31;;;22.11;46.38
65329;BME280;51941;52.210;5.158;2022-09-01T07:23:35;102029.53;;;21.59;45.91
65329;BME280;51941;52.210;5.158;2022-09-01T07:26:04;102116.59;;;22.24;45.68
65329;BME280;51941;52.210;5.158;2022-09-01T07:28:34;101918.50;;;21.03;45.33
65329;BME280;51941;52.210;5.158;2022-09-01T07:31:01;102001.47;;;21.75;44.85
65329;BME280;51941;52.210;5.158;2022-09-01T07:33:30;101993.66;;;21.69;44.96
65329;BME280;51941;52.210;5.158;2022-09-01T07:36:01;101846.69;;;20.78;44.58
65329;BME280;51941;52.210;5.158;2022-09-01T07:38:29;102084.72;;;22.31;43.89
65329;BME280;51941;52.210;5.158;2022-09-01T07:40:58;101926.66;;;21.47;43.74
65329;BME280;51941;52.210;5.158;2022-09-01T07:43:54;101996.19;;;22.04;43.14
65329;BME280;51941;52.210;5.158;2022-09-01T07:46:53;101928.38;;;21.82;43.16
65329;BME280;51941;52.210;5.158;2022-09-01T07:49:22;101866.88;;;21.45;42.64
65329;BME280;51941;52.210;5.158;2022-09-01T07:51:50;102040.53;;;22.66;42.57
65329;BME280;51941;52.210;5.158;2022-09-01T07:54:18;102114.63;;;23.47;42.08
65329;BME280;51941;52.210;5.158;2022-09-01T07:56:51;102023.34;;;22.91;41.82
65329;BME280;51941;52.210;5.158;2022-09-01T07:59:20;102122.00;;;23.41;41.32
65329;BME280;51941;52.210;5.158;2022-09-01T08:02:00;102108.03;;;23.34;41.73
65329;BME280;51941;52.210;5.158;2022-09-01T08:04:28;102046.53;;;23.21;41.59
65329;BME280;51941;52.210;5.158;2022-09-01T08:06:56;102110.28;;;23.74;41.18
65329;BME280;51941;52.210;5.158;2022-09-01T08:09:23;102071.13;;;23.48;40.93
65329;BME280;51941;52.210;5.158;2022-09-01T08:11:51;102106.25;;;23.72;40.85
65329;BME280;51941;52.210;5.158;2022-09-01T08:14:18;102095.91;;;23.79;40.70
65329;BME280;51941;52.210;5.158;2022-09-01T08:16:45;102114.91;;;24.17;39.98
65329;BME280;51941;52.210;5.158;2022-09-01T08:19:12;102116.97;;;24.25;40.05
65329;BME280;51941;52.210;5.158;2022-09-01T08:22:02;102119.09;;;24.28;39.72
65329;BME280;51941;52.210;5.158;2022-09-01T08:24:53;102104.88;;;23.98;38.99
65329;BME280;51941;52.210;5.158;2022-09-01T08:27:22;102070.19;;;23.34;39.76
65329;BME280;51941;52.210;5.158;2022-09-01T08:29:49;102012.00;;;22.60;40.15
65329;BME280;51941;52.210;5.158;2022-09-01T08:32:16;101907.75;;;21.57;40.63
65329;BME280;51941;52.210;5.158;2022-09-01T08:34:45;102079.19;;;22.12;40.94
65329;BME280;51941;52.210;5.158;2022-09-01T08:37:12;102065.78;;;21.97;41.26
65329;BME280;51941;52.210;5.158;2022-09-01T08:39:39;102077.63;;;22.01;41.59
65329;BME280;51941;52.210;5.158;2022-09-01T08:52:55;102022.03;;;21.46;40.92
65329;BME280;51941;52.210;5.158;2022-09-01T08:55:27;102129.28;;;22.23;40.62
65329;BME280;51941;52.210;5.158;2022-09-01T08:57:59;102121.81;;;22.10;40.25
65329;BME280;51941;52.210;5.158;2022-09-01T09:00:28;102051.06;;;21.64;40.26
65329;BME280;51941;52.210;5.158;2022-09-01T09:03:11;101996.25;;;21.20;39.93
65329;BME280;51941;52.210;5.158;2022-09-01T09:05:53;101891.09;;;20.75;40.32
65329;BME280;51941;52.210;5.158;2022-09-01T09:08:42;102032.75;;;21.76;39.97
65329;BME280;51941;52.210;5.158;2022-09-01T09:14:10;101953.69;;;21.27;39.46
65329;BME280;51941;52.210;5.158;2022-09-01T09:16:41;102042.34;;;21.93;39.76
65329;BME280;51941;52.210;5.158;2022-09-01T09:19:10;102103.28;;;22.43;39.69
65329;BME280;51941;52.210;5.158;2022-09-01T09:21:39;102107.59;;;22.44;39.71
65329;BME280;51941;52.210;5.158;2022-09-01T09:24:13;101983.75;;;21.59;38.79
65329;BME280;51941;52.210;5.158;2022-09-01T09:26:47;102092.00;;;22.36;39.62
65329;BME280;51941;52.210;5.158;2022-09-01T09:29:14;101922.41;;;21.36;39.23
65329;BME280;51941;52.210;5.158;2022-09-01T09:31:41;102024.50;;;22.02;39.18
65329;BME280;51941;52.210;5.158;2022-09-01T09:34:28;102040.34;;;22.13;38.91
65329;BME280;51941;52.210;5.158;2022-09-01T09:37:00;102019.63;;;22.09;39.34
65329;BME280;51941;52.210;5.158;2022-09-01T09:39:29;101947.56;;;21.75;39.00
65329;BME280;51941;52.210;5.158;2022-09-01T09:42:05;102006.84;;;22.24;38.99
65329;BME280;51941;52.210;5.158;2022-09-01T09:44:40;102068.97;;;22.87;38.88
65329;BME280;51941;52.210;5.158;2022-09-01T09:47:09;101968.19;;;22.34;38.63
65329;BME280;51941;52.210;5.158;2022-09-01T09:49:36;102080.88;;;23.15;38.19
65329;BME280;51941;52.210;5.158;2022-09-01T09:52:15;102017.41;;;22.89;37.32
65329;BME280;51941;52.210;5.158;2022-09-01T09:55:03;102032.75;;;22.93;36.97
65329;BME280;51941;52.210;5.158;2022-09-01T09:57:31;101914.00;;;22.31;37.26
65329;BME280;51941;52.210;5.158;2022-09-01T10:00:06;101985.38;;;22.77;36.82
65329;BME280;51941;52.210;5.158;2022-09-01T10:02:40;102070.47;;;23.32;36.57
65329;BME280;51941;52.210;5.158;2022-09-01T10:05:34;101871.66;;;21.97;35.31
65329;BME280;51941;52.210;5.158;2022-09-01T10:08:03;101952.44;;;22.46;35.21
65329;BME280;51941;52.210;5.158;2022-09-01T10:10:39;101719.03;;;21.04;34.14
65329;BME280;51941;52.210;5.158;2022-09-01T10:13:11;101744.56;;;21.12;33.99
65329;BME280;51941;52.210;5.158;2022-09-01T10:15:40;101683.78;;;20.96;34.82
65329;BME280;51941;52.210;5.158;2022-09-01T10:18:15;102056.41;;;23.35;35.08
65329;BME280;51941;52.210;5.158;2022-09-01T10:21:02;101704.50;;;21.05;34.45
65329;BME280;51941;52.210;5.158;2022-09-01T10:23:34;101720.25;;;21.22;34.74
65329;BME280;51941;52.210;5.158;2022-09-01T10:26:10;101688.69;;;20.89;34.57
65329;BME280;51941;52.210;5.158;2022-09-01T10:28:45;101844.69;;;22.02;34.73
65329;BME280;51941;52.210;5.158;2022-09-01T10:31:14;102056.34;;;23.41;34.96
65329;BME280;51941;52.210;5.158;2022-09-01T10:33:44;101914.84;;;22.60;34.61
65329;BME280;51941;52.210;5.158;2022-09-01T10:36:13;101705.84;;;21.37;34.68
65329;BME280;51941;52.210;5.158;2022-09-01T10:38:43;101695.69;;;21.29;34.53
65329;BME280;51941;52.210;5.158;2022-09-01T10:41:45;101697.56;;;21.33;34.38
65329;BME280;51941;52.210;5.158;2022-09-01T10:44:20;102045.34;;;23.56;34.67
65329;BME280;51941;52.210;5.158;2022-09-01T10:46:49;101685.53;;;21.21;34.66
65329;BME280;51941;52.210;5.158;2022-09-01T10:49:58;102042.94;;;23.54;34.64
65329;BME280;51941;52.210;5.158;2022-09-01T10:52:58;102040.63;;;23.66;34.56
65329;BME280;51941;52.210;5.158;2022-09-01T10:56:05;101729.88;;;21.67;34.74
65329;BME280;51941;52.210;5.158;2022-09-01T11:15:36;101722.53;;;21.73;33.88
65329;BME280;51941;52.210;5.158;2022-09-01T11:18:26;102026.09;;;23.81;32.87
65329;BME280;51941;52.210;5.158;2022-09-01T11:21:23;101680.09;;;21.60;33.32
65329;BME280;51941;52.210;5.158;2022-09-01T11:27:12;101818.03;;;22.53;33.87
65329;BME280;51941;52.210;5.158;2022-09-01T11:30:02;101671.22;;;21.54;33.62
65329;BME280;51941;52.210;5.158;2022-09-01T11:32:58;101669.81;;;21.62;33.76
65329;BME280;51941;52.210;5.158;2022-09-01T11:49:39;101680.22;;;22.02;32.80
65329;BME280;51941;52.210;5.158;2022-09-01T12:23:03;101923.97;;;23.78;30.25
65329;BME280;51941;52.210;5.158;2022-09-01T12:25:41;101681.25;;;22.30;30.61
65329;BME280;51941;52.210;5.158;2022-09-01T12:28:10;101676.06;;;22.34;30.46
65329;BME280;51941;52.210;5.158;2022-09-01T12:30:39;101805.28;;;23.25;31.17
65329;BME280;51941;52.210;5.158;2022-09-01T12:33:13;101993.28;;;24.44;31.41
65329;BME280;51941;52.210;5.158;2022-09-01T12:36:28;101656.44;;;22.28;31.01
65329;BME280;51941;52.210;5.158;2022-09-01T12:39:20;101845.94;;;23.71;31.22
65329;BME280;51941;52.210;5.158;2022-09-01T16:31:15;101725.75;;;23.96;31.64
65329;BME280;51941;52.210;5.158;2022-09-01T18:34:03;101703.84;;;21.19;38.57
65329;BME280;51941;52.210;5.158;2022-09-01T18:36:38;101785.63;;;21.67;38.27
65329;BME280;51941;52.210;5.158;2022-09-01T18:39:14;101669.03;;;20.88;38.57
65329;BME280;51941;52.210;5.158;2022-09-01T18:41:57;101736.41;;;21.22;38.81
65329;BME280;51941;52.210;5.158;2022-09-01T18:44:37;101713.66;;;21.04;39.00
65329;BME280;51941;52.210;5.158;2022-09-01T18:47:11;101433.56;;;19.14;38.98
65329;BME280;51941;52.210;5.158;2022-09-01T18:49:56;101675.66;;;20.62;39.05
65329;BME280;51941;52.210;5.158;2022-09-01T18:52:40;101784.88;;;21.22;39.51
65329;BME280;51941;52.210;5.158;2022-09-01T18:55:16;101809.91;;;21.23;39.57
65329;BME280;51941;52.210;5.158;2022-09-01T18:57:51;101797.53;;;21.17;39.45
65329;BME280;51941;52.210;5.158;2022-09-01T19:00:20;101671.78;;;20.14;39.87
65329;BME280;51941;52.210;5.158;2022-09-01T19:05:52;101532.31;;;19.27;40.32
65329;BME280;51941;52.210;5.158;2022-09-01T19:08:32;101582.75;;;19.51;40.44
65329;BME280;51941;52.210;5.158;2022-09-01T19:11:09;101677.47;;;19.97;41.01
65329;BME280;51941;52.210;5.158;2022-09-01T19:13:46;101809.56;;;20.75;41.59
65329;BME280;51941;52.210;5.158;2022-09-01T19:16:24;101800.22;;;20.47;42.30
65329;BME280;51941;52.210;5.158;2022-09-01T19:19:02;101699.53;;;19.89;42.62
65329;BME280;51941;52.210;5.158;2022-09-01T19:21:34;101636.75;;;19.44;42.59
65329;BME280;51941;52.210;5.158;2022-09-01T19:24:06;101728.53;;;19.97;43.04
65329;BME280;51941;52.210;5.158;2022-09-01T19:26:38;101806.16;;;20.39;43.82
65329;BME280;51941;52.210;5.158;2022-09-01T19:29:08;101722.13;;;19.83;43.74
65329;BME280;51941;52.210;5.158;2022-09-01T19:31:39;101767.50;;;19.99;43.85
65329;BME280;51941;52.210;5.158;2022-09-01T19:34:12;101658.22;;;19.29;44.55
65329;BME280;51941;52.210;5.158;2022-09-01T19:36:54;101833.88;;;20.14;44.37
65329;BME280;51941;52.210;5.158;2022-09-01T21:11:58;101821.38;;;18.17;47.61
65329;BME280;51941;52.210;5.158;2022-09-01T21:14:38;101830.19;;;18.13;47.61
65329;BME280;51941;52.210;5.158;2022-09-01T21:17:14;101739.97;;;17.55;47.66
65329;BME280;51941;52.210;5.158;2022-09-01T21:19:52;101625.59;;;16.81;47.98
65329;BME280;51941;52.210;5.158;2022-09-01T21:22:27;101579.31;;;16.54;47.57
65329;BME280;51941;52.210;5.158;2022-09-01T21:49:07;101437.03;;;15.23;48.26
65329;BME280;51941;52.210;5.158;2022-09-01T21:51:37;101393.59;;;15.05;48.17
65329;BME280;51941;52.210;5.158;2022-09-01T21:54:04;101801.22;;;17.51;48.67
65329;BME280;51941;52.210;5.158;2022-09-01T21:56:32;101643.75;;;16.57;48.58
65329;BME280;51941;52.210;5.158;2022-09-01T21:58:59;101750.38;;;17.24;48.52
65329;BME280;51941;52.210;5.158;2022-09-01T22:01:27;101411.13;;;15.01;48.28
65329;BME280;51941;52.210;5.158;2022-09-01T22:03:58;101402.59;;;14.99;48.56
65329;BME280;51941;52.210;5.158;2022-09-01T22:06:27;101656.88;;;16.59;48.47
65329;BME280;51941;52.210;5.158;2022-09-01T22:08:54;101455.69;;;15.23;48.59
65329;BME280;51941;52.210;5.158;2022-09-01T22:11:22;101590.81;;;16.06;48.56
65329;BME280;51941;52.210;5.158;2022-09-01T22:13:49;101372.84;;;14.69;48.33
65329;BME280;51941;52.210;5.158;2022-09-01T22:16:17;101784.31;;;17.19;48.65
65329;BME280;51941;52.210;5.158;2022-09-01T22:18:44;101711.16;;;16.81;48.65
65329;BME280;51941;52.210;5.158;2022-09-01T22:21:12;101617.38;;;16.17;48.71
65329;BME280;51941;52.210;5.158;2022-09-01T22:23:41;101755.16;;;16.95;48.59
65329;BME280;51941;52.210;5.158;2022-09-01T22:26:09;101783.44;;;17.13;48.68
65329;BME280;51941;52.210;5.158;2022-09-01T22:28:42;101766.66;;;16.96;48.85
65329;BME280;51941;52.210;5.158;2022-09-01T22:31:11;101708.66;;;16.53;48.66
65329;BME280;51941;52.210;5.158;2022-09-01T22:33:38;101578.72;;;15.81;48.67
65329;BME280;51941;52.210;5.158;2022-09-01T22:36:06;101590.22;;;15.82;48.75
65329;BME280;51941;52.210;5.158;2022-09-01T22:38:33;101378.75;;;14.54;48.84
65329;BME280;51941;52.210;5.158;2022-09-01T22:41:02;101422.91;;;14.67;48.93
65329;BME280;51941;52.210;5.158;2022-09-01T22:43:30;101529.34;;;15.45;48.92
65329;BME280;51941;52.210;5.158;2022-09-01T22:46:07;101692.09;;;16.34;48.89
65329;BME280;51941;52.210;5.158;2022-09-01T22:48:34;101727.44;;;16.58;49.10
65329;BME280;51941;52.210;5.158;2022-09-01T22:51:04;101701.88;;;16.45;49.02
65329;BME280;51941;52.210;5.158;2022-09-01T22:53:33;101379.69;;;14.31;48.94
65329;BME280;51941;52.210;5.158;2022-09-01T22:56:08;101635.31;;;16.00;49.14
65329;BME280;51941;52.210;5.158;2022-09-01T22:58:35;101546.22;;;15.29;49.17
65329;BME280;51941;52.210;5.158;2022-09-01T23:01:03;101712.56;;;16.45;49.00
65329;BME280;51941;52.210;5.158;2022-09-01T23:03:30;101454.63;;;14.85;48.91
65329;BME280;51941;52.210;5.158;2022-09-01T23:06:02;101557.66;;;15.46;49.19
65329;BME280;51941;52.210;5.158;2022-09-01T23:08:29;101763.94;;;16.69;49.13
65329;BME280;51941;52.210;5.158;2022-09-01T23:10:56;101609.13;;;15.80;49.42
65329;BME280;51941;52.210;5.158;2022-09-01T23:13:25;101623.28;;;15.81;49.28
65329;BME280;51941;52.210;5.158;2022-09-01T23:15:53;101754.25;;;16.63;49.19